sensor_id;sensor_type;location;lat;lon;timestamp;P1;durP1;ratioP1;P2;durP2;ratioP2
17741;SDS011;8993;51.822;-2.268;2023-05-18T00:00:38;8.00;;;3.71;;
17741;SDS011;8993;51.822;-2.268;2023-05-18T00:05:43;7.08;;;3.63;;
17741;SDS011;8993;51.822;-2.268;2023-05-18T00:10:47;10.49;;;4.19;;
17741;SDS011;8993;51.822;-2.268;2023-05-18T00:15:52;10.36;;;4.53;;
17741;SDS011;8993;51.822;-2.268;2023-05-18T00:20:57;9.38;;;4.62;;
17741;SDS011;8993;51.822;-2.268;2023-05-18T00:26:02;8.66;;;4.05;;
17741;SDS011;8993;51.822;-2.268;2023-05-18T00:31:06;6.64;;;3.79;;
17741;SDS011;8993;51.822;-2.268;2023-05-18T00:36:10;7.84;;;4.08;;
17741;SDS011;8993;51.822;-2.268;2023-05-18T00:41:15;9.16;;;4.31;;
17741;SDS011;8993;51.822;-2.268;2023-05-18T00:46:19;10.34;;;4.92;;
17741;SDS011;8993;51.822;-2.268;2023-05-18T00:51:23;9.04;;;4.18;;
17741;SDS011;8993;51.822;-2.268;2023-05-18T00:56:28;10.74;;;4.51;;
17741;SDS011;8993;51.822;-2.268;2023-05-18T01:01:32;9.09;;;4.53;;
17741;SDS011;8993;51.822;-2.268;2023-05-18T01:06:36;10.05;;;4.65;;
17741;SDS011;8993;51.822;-2.268;2023-05-18T01:11:43;8.37;;;4.21;;
17741;SDS011;8993;51.822;-2.268;2023-05-18T01:16:47;8.95;;;4.36;;
17741;SDS011;8993;51.822;-2.268;2023-05-18T01:21:50;8.79;;;4.02;;
17741;SDS011;8993;51.822;-2.268;2023-05-18T01:26:53;10.84;;;5.30;;
17741;SDS011;8993;51.822;-2.268;2023-05-18T01:31:57;10.99;;;5.09;;
17741;SDS011;8993;51.822;-2.268;2023-05-18T01:37:02;10.02;;;4.67;;
17741;SDS011;8993;51.822;-2.268;2023-05-18T01:42:07;8.58;;;4.22;;
17741;SDS011;8993;51.822;-2.268;2023-05-18T01:47:11;5.89;;;3.56;;
17741;SDS011;8993;51.822;-2.268;2023-05-18T01:52:15;8.84;;;4.17;;
17741;SDS011;8993;51.822;-2.268;2023-05-18T01:57:19;7.95;;;4.04;;
17741;SDS011;8993;51.822;-2.268;2023-05-18T02:02:22;7.15;;;4.08;;
17741;SDS011;8993;51.822;-2.268;2023-05-18T02:07:27;10.05;;;4.74;;
17741;SDS011;8993;51.822;-2.268;2023-05-18T02:12:31;9.84;;;4.84;;
17741;SDS011;8993;51.822;-2.268;2023-05-18T02:17:35;11.51;;;5.23;;
17741;SDS011;8993;51.822;-2.268;2023-05-18T02:22:40;9.89;;;5.05;;
17741;SDS011;8993;51.822;-2.268;2023-05-18T02:27:44;9.28;;;4.76;;
17741;SDS011;8993;51.822;-2.268;2023-05-18T02:32:48;8.53;;;4.59;;
17741;SDS011;8993;51.822;-2.268;2023-05-18T02:37:53;11.02;;;4.83;;
17741;SDS011;8993;51.822;-2.268;2023-05-18T02:42:57;9.56;;;4.95;;
17741;SDS011;8993;51.822;-2.268;2023-05-18T02:48:01;11.12;;;5.35;;
17741;SDS011;8993;51.822;-2.268;2023-05-18T02:53:06;8.46;;;4.33;;
17741;SDS011;8993;51.822;-2.268;2023-05-18T02:58:10;12.41;;;5.65;;
17741;SDS011;8993;51.822;-2.268;2023-05-18T03:03:14;9.51;;;4.83;;
17741;SDS011;8993;51.822;-2.268;2023-05-18T03:08:19;8.94;;;4.39;;
17741;SDS011;8993;51.822;-2.268;2023-05-18T03:13:23;11.21;;;5.22;;
17741;SDS011;8993;51.822;-2.268;2023-05-18T03:18:27;9.77;;;4.76;;
17741;SDS011;8993;51.822;-2.268;2023-05-18T03:23:32;10.88;;;5.10;;
17741;SDS011;8993;51.822;-2.268;2023-05-18T03:28:36;8.84;;;4.33;;
17741;SDS011;8993;51.822;-2.268;2023-05-18T03:33:40;8.08;;;4.45;;
17741;SDS011;8993;51.822;-2.268;2023-05-18T03:38:45;5.83;;;3.75;;
17741;SDS011;8993;51.822;-2.268;2023-05-18T03:43:49;8.36;;;4.53;;
17741;SDS011;8993;51.822;-2.268;2023-05-18T03:48:53;8.74;;;4.47;;
17741;SDS011;8993;51.822;-2.268;2023-05-18T03:53:57;9.28;;;4.70;;
17741;SDS011;8993;51.822;-2.268;2023-05-18T03:59:02;7.99;;;4.40;;
17741;SDS011;8993;51.822;-2.268;2023-05-18T04:04:06;9.00;;;4.90;;
17741;SDS011;8993;51.822;-2.268;2023-05-18T04:09:11;7.38;;;4.34;;
17741;SDS011;8993;51.822;-2.268;2023-05-18T04:14:15;8.29;;;4.57;;
17741;SDS011;8993;51.822;-2.268;2023-05-18T04:19:20;10.14;;;5.22;;
17741;SDS011;8993;51.822;-2.268;2023-05-18T04:24:24;10.28;;;3.97;;
17741;SDS011;8993;51.822;-2.268;2023-05-18T04:29:28;10.17;;;5.20;;
17741;SDS011;8993;51.822;-2.268;2023-05-18T04:34:33;9.18;;;4.71;;
17741;SDS011;8993;51.822;-2.268;2023-05-18T04:39:37;9.69;;;4.56;;
17741;SDS011;8993;51.822;-2.268;2023-05-18T04:44:41;8.89;;;5.48;;
17741;SDS011;8993;51.822;-2.268;2023-05-18T04:49:46;12.90;;;6.02;;
17741;SDS011;8993;51.822;-2.268;2023-05-18T04:54:50;12.72;;;5.93;;
17741;SDS011;8993;51.822;-2.268;2023-05-18T04:59:54;8.57;;;4.87;;
17741;SDS011;8993;51.822;-2.268;2023-05-18T05:04:59;6.38;;;3.78;;
17741;SDS011;8993;51.822;-2.268;2023-05-18T05:10:04;7.70;;;4.31;;
17741;SDS011;8993;51.822;-2.268;2023-05-18T05:15:08;8.72;;;4.44;;
17741;SDS011;8993;51.822;-2.268;2023-05-18T05:20:13;9.45;;;4.85;;
17741;SDS011;8993;51.822;-2.268;2023-05-18T05:25:17;12.78;;;6.21;;
17741;SDS011;8993;51.822;-2.268;2023-05-18T05:30:21;10.38;;;5.40;;
17741;SDS011;8993;51.822;-2.268;2023-05-18T05:35:25;11.51;;;5.96;;
17741;SDS011;8993;51.822;-2.268;2023-05-18T05:40:30;11.84;;;5.74;;
17741;SDS011;8993;51.822;-2.268;2023-05-18T05:45:34;10.86;;;5.45;;
17741;SDS011;8993;51.822;-2.268;2023-05-18T05:50:39;11.02;;;6.02;;
17741;SDS011;8993;51.822;-2.268;2023-05-18T05:55:43;17.03;;;8.26;;
17741;SDS011;8993;51.822;-2.268;2023-05-18T06:00:48;19.69;;;9.07;;
17741;SDS011;8993;51.822;-2.268;2023-05-18T06:05:53;16.89;;;8.56;;
17741;SDS011;8993;51.822;-2.268;2023-05-18T06:10:58;20.76;;;10.14;;
17741;SDS011;8993;51.822;-2.268;2023-05-18T06:16:02;23.62;;;10.89;;
17741;SDS011;8993;51.822;-2.268;2023-05-18T06:21:07;24.04;;;11.27;;
17741;SDS011;8993;51.822;-2.268;2023-05-18T06:26:12;19.95;;;10.58;;
17741;SDS011;8993;51.822;-2.268;2023-05-18T06:31:17;24.19;;;11.68;;
17741;SDS011;8993;51.822;-2.268;2023-05-18T06:36:22;26.78;;;12.60;;
17741;SDS011;8993;51.822;-2.268;2023-05-18T06:41:26;30.24;;;13.11;;
17741;SDS011;8993;51.822;-2.268;2023-05-18T06:46:31;26.42;;;11.93;;
17741;SDS011;8993;51.822;-2.268;2023-05-18T06:51:36;25.26;;;12.67;;
17741;SDS011;8993;51.822;-2.268;2023-05-18T06:56:40;22.15;;;11.49;;
17741;SDS011;8993;51.822;-2.268;2023-05-18T07:01:45;24.67;;;11.63;;
17741;SDS011;8993;51.822;-2.268;2023-05-18T07:06:49;20.92;;;10.55;;
17741;SDS011;8993;51.822;-2.268;2023-05-18T07:11:54;22.72;;;11.18;;
17741;SDS011;8993;51.822;-2.268;2023-05-18T07:16:59;22.39;;;11.15;;
17741;SDS011;8993;51.822;-2.268;2023-05-18T07:22:03;22.54;;;11.24;;
17741;SDS011;8993;51.822;-2.268;2023-05-18T07:27:09;23.49;;;11.05;;
17741;SDS011;8993;51.822;-2.268;2023-05-18T07:32:14;19.73;;;9.48;;
17741;SDS011;8993;51.822;-2.268;2023-05-18T07:37:18;23.36;;;10.69;;
17741;SDS011;8993;51.822;-2.268;2023-05-18T07:42:23;19.16;;;10.02;;
17741;SDS011;8993;51.822;-2.268;2023-05-18T07:47:27;23.04;;;10.23;;
17741;SDS011;8993;51.822;-2.268;2023-05-18T07:52:32;20.88;;;9.58;;
17741;SDS011;8993;51.822;-2.268;2023-05-18T07:57:37;17.29;;;9.37;;
17741;SDS011;8993;51.822;-2.268;2023-05-18T08:02:42;18.99;;;8.86;;
17741;SDS011;8993;51.822;-2.268;2023-05-18T08:07:46;19.83;;;9.29;;
17741;SDS011;8993;51.822;-2.268;2023-05-18T08:12:52;20.03;;;9.68;;
17741;SDS011;8993;51.822;-2.268;2023-05-18T08:17:56;18.01;;;8.92;;
17741;SDS011;8993;51.822;-2.268;2023-05-18T08:23:01;15.59;;;7.66;;
17741;SDS011;8993;51.822;-2.268;2023-05-18T08:28:06;19.26;;;8.79;;
17741;SDS011;8993;51.822;-2.268;2023-05-18T08:33:10;16.82;;;8.02;;
17741;SDS011;8993;51.822;-2.268;2023-05-18T08:38:15;15.30;;;7.30;;
17741;SDS011;8993;51.822;-2.268;2023-05-18T08:43:30;15.92;;;7.90;;
17741;SDS011;8993;51.822;-2.268;2023-05-18T08:48:25;16.80;;;7.78;;
17741;SDS011;8993;51.822;-2.268;2023-05-18T08:53:31;16.14;;;8.02;;
17741;SDS011;8993;51.822;-2.268;2023-05-18T08:58:36;13.05;;;7.28;;
17741;SDS011;8993;51.822;-2.268;2023-05-18T09:03:40;13.27;;;6.49;;
17741;SDS011;8993;51.822;-2.268;2023-05-18T09:08:45;12.73;;;6.88;;
17741;SDS011;8993;51.822;-2.268;2023-05-18T09:13:49;12.54;;;6.93;;
17741;SDS011;8993;51.822;-2.268;2023-05-18T09:18:54;16.61;;;6.91;;
17741;SDS011;8993;51.822;-2.268;2023-05-18T09:23:59;12.73;;;6.68;;
17741;SDS011;8993;51.822;-2.268;2023-05-18T09:29:13;11.02;;;6.09;;
17741;SDS011;8993;51.822;-2.268;2023-05-18T09:34:08;11.81;;;6.33;;
17741;SDS011;8993;51.822;-2.268;2023-05-18T09:39:13;11.43;;;5.87;;
17741;SDS011;8993;51.822;-2.268;2023-05-18T09:44:28;12.95;;;5.64;;
17741;SDS011;8993;51.822;-2.268;2023-05-18T09:49:27;12.82;;;5.77;;
17741;SDS011;8993;51.822;-2.268;2023-05-18T09:54:30;12.94;;;6.22;;
17741;SDS011;8993;51.822;-2.268;2023-05-18T09:59:35;10.30;;;5.65;;
17741;SDS011;8993;51.822;-2.268;2023-05-18T10:04:40;11.91;;;5.42;;
17741;SDS011;8993;51.822;-2.268;2023-05-18T10:09:45;11.37;;;5.17;;
17741;SDS011;8993;51.822;-2.268;2023-05-18T10:14:50;7.68;;;3.95;;
17741;SDS011;8993;51.822;-2.268;2023-05-18T10:19:54;11.15;;;5.32;;
17741;SDS011;8993;51.822;-2.268;2023-05-18T10:24:59;10.00;;;4.12;;
17741;SDS011;8993;51.822;-2.268;2023-05-18T10:30:06;6.75;;;3.16;;
17741;SDS011;8993;51.822;-2.268;2023-05-18T10:35:09;7.75;;;3.69;;
17741;SDS011;8993;51.822;-2.268;2023-05-18T10:40:13;7.83;;;3.78;;
17741;SDS011;8993;51.822;-2.268;2023-05-18T10:45:17;7.61;;;3.65;;
17741;SDS011;8993;51.822;-2.268;2023-05-18T10:50:22;7.88;;;3.52;;
17741;SDS011;8993;51.822;-2.268;2023-05-18T10:55:26;9.12;;;3.96;;
17741;SDS011;8993;51.822;-2.268;2023-05-18T11:00:33;8.58;;;4.18;;
17741;SDS011;8993;51.822;-2.268;2023-05-18T11:05:36;10.32;;;4.49;;
17741;SDS011;8993;51.822;-2.268;2023-05-18T11:10:41;7.98;;;3.89;;
17741;SDS011;8993;51.822;-2.268;2023-05-18T11:20:49;7.32;;;3.96;;
17741;SDS011;8993;51.822;-2.268;2023-05-18T11:25:54;8.20;;;3.92;;
17741;SDS011;8993;51.822;-2.268;2023-05-18T11:30:59;6.61;;;3.32;;
17741;SDS011;8993;51.822;-2.268;2023-05-18T11:36:04;6.89;;;3.42;;
17741;SDS011;8993;51.822;-2.268;2023-05-18T11:41:25;6.70;;;3.11;;
17741;SDS011;8993;51.822;-2.268;2023-05-18T11:46:16;7.22;;;3.45;;
17741;SDS011;8993;51.822;-2.268;2023-05-18T11:51:20;7.70;;;3.68;;
17741;SDS011;8993;51.822;-2.268;2023-05-18T11:56:25;6.90;;;3.32;;
17741;SDS011;8993;51.822;-2.268;2023-05-18T12:01:29;8.18;;;3.36;;
17741;SDS011;8993;51.822;-2.268;2023-05-18T12:06:35;8.24;;;3.40;;
17741;SDS011;8993;51.822;-2.268;2023-05-18T12:11:39;6.88;;;3.32;;
17741;SDS011;8993;51.822;-2.268;2023-05-18T12:16:44;7.05;;;3.12;;
17741;SDS011;8993;51.822;-2.268;2023-05-18T12:21:48;6.36;;;3.15;;
17741;SDS011;8993;51.822;-2.268;2023-05-18T12:26:53;6.40;;;3.64;;
17741;SDS011;8993;51.822;-2.268;2023-05-18T12:31:57;7.17;;;3.32;;
17741;SDS011;8993;51.822;-2.268;2023-05-18T12:37:02;7.39;;;3.92;;
17741;SDS011;8993;51.822;-2.268;2023-05-18T12:42:07;7.60;;;3.78;;
17741;SDS011;8993;51.822;-2.268;2023-05-18T12:47:11;8.31;;;3.77;;
17741;SDS011;8993;51.822;-2.268;2023-05-18T12:52:16;6.17;;;3.27;;
17741;SDS011;8993;51.822;-2.268;2023-05-18T12:57:21;6.56;;;3.18;;
17741;SDS011;8993;51.822;-2.268;2023-05-18T13:02:27;5.82;;;3.11;;
17741;SDS011;8993;51.822;-2.268;2023-05-18T13:07:30;5.68;;;3.00;;
17741;SDS011;8993;51.822;-2.268;2023-05-18T13:12:36;6.47;;;3.09;;
17741;SDS011;8993;51.822;-2.268;2023-05-18T13:17:46;7.52;;;3.76;;
17741;SDS011;8993;51.822;-2.268;2023-05-18T13:22:44;7.00;;;3.46;;
17741;SDS011;8993;51.822;-2.268;2023-05-18T13:27:49;5.89;;;3.37;;
17741;SDS011;8993;51.822;-2.268;2023-05-18T13:32:53;6.77;;;3.58;;
17741;SDS011;8993;51.822;-2.268;2023-05-18T13:37:57;6.29;;;3.50;;
17741;SDS011;8993;51.822;-2.268;2023-05-18T13:43:02;8.47;;;3.51;;
17741;SDS011;8993;51.822;-2.268;2023-05-18T13:48:07;5.51;;;3.39;;
17741;SDS011;8993;51.822;-2.268;2023-05-18T13:53:12;6.80;;;3.52;;
17741;SDS011;8993;51.822;-2.268;2023-05-18T13:58:17;5.35;;;3.33;;
17741;SDS011;8993;51.822;-2.268;2023-05-18T14:03:21;6.05;;;3.17;;
17741;SDS011;8993;51.822;-2.268;2023-05-18T14:08:26;6.51;;;3.57;;
17741;SDS011;8993;51.822;-2.268;2023-05-18T14:13:30;6.83;;;3.59;;
17741;SDS011;8993;51.822;-2.268;2023-05-18T14:18:35;7.78;;;3.90;;
17741;SDS011;8993;51.822;-2.268;2023-05-18T14:23:40;7.88;;;3.85;;
17741;SDS011;8993;51.822;-2.268;2023-05-18T14:28:44;10.19;;;4.12;;
17741;SDS011;8993;51.822;-2.268;2023-05-18T14:33:49;8.71;;;4.26;;
17741;SDS011;8993;51.822;-2.268;2023-05-18T14:38:54;8.13;;;3.84;;
17741;SDS011;8993;51.822;-2.268;2023-05-18T14:43:58;8.61;;;4.19;;
17741;SDS011;8993;51.822;-2.268;2023-05-18T14:49:03;7.67;;;3.79;;
17741;SDS011;8993;51.822;-2.268;2023-05-18T14:54:08;8.53;;;4.06;;
17741;SDS011;8993;51.822;-2.268;2023-05-18T14:59:12;8.16;;;4.11;;
17741;SDS011;8993;51.822;-2.268;2023-05-18T15:04:17;7.37;;;3.93;;
17741;SDS011;8993;51.822;-2.268;2023-05-18T15:09:23;8.23;;;4.21;;
17741;SDS011;8993;51.822;-2.268;2023-05-18T15:14:27;10.50;;;4.34;;
17741;SDS011;8993;51.822;-2.268;2023-05-18T15:19:32;8.26;;;3.99;;
17741;SDS011;8993;51.822;-2.268;2023-05-18T15:24:37;8.89;;;3.57;;
17741;SDS011;8993;51.822;-2.268;2023-05-18T15:29:41;8.81;;;3.88;;
17741;SDS011;8993;51.822;-2.268;2023-05-18T15:34:46;10.62;;;5.02;;
17741;SDS011;8993;51.822;-2.268;2023-05-18T15:39:51;9.64;;;5.38;;
17741;SDS011;8993;51.822;-2.268;2023-05-18T15:44:55;9.22;;;4.90;;
17741;SDS011;8993;51.822;-2.268;2023-05-18T15:50:00;8.77;;;4.08;;
17741;SDS011;8993;51.822;-2.268;2023-05-18T15:55:05;8.04;;;3.94;;
17741;SDS011;8993;51.822;-2.268;2023-05-18T16:00:10;8.55;;;3.89;;
17741;SDS011;8993;51.822;-2.268;2023-05-18T16:05:14;8.85;;;3.82;;
17741;SDS011;8993;51.822;-2.268;2023-05-18T16:10:20;9.95;;;4.16;;
17741;SDS011;8993;51.822;-2.268;2023-05-18T16:15:26;8.92;;;4.14;;
17741;SDS011;8993;51.822;-2.268;2023-05-18T16:20:29;8.72;;;3.98;;
17741;SDS011;8993;51.822;-2.268;2023-05-18T16:25:34;7.82;;;3.49;;
17741;SDS011;8993;51.822;-2.268;2023-05-18T16:30:38;7.56;;;3.98;;
17741;SDS011;8993;51.822;-2.268;2023-05-18T16:35:42;7.03;;;3.53;;
17741;SDS011;8993;51.822;-2.268;2023-05-18T16:40:47;5.89;;;3.34;;
17741;SDS011;8993;51.822;-2.268;2023-05-18T16:45:52;8.68;;;3.80;;
17741;SDS011;8993;51.822;-2.268;2023-05-18T16:50:56;7.13;;;3.49;;
17741;SDS011;8993;51.822;-2.268;2023-05-18T16:56:01;7.51;;;3.57;;
17741;SDS011;8993;51.822;-2.268;2023-05-18T17:01:06;8.77;;;3.75;;
17741;SDS011;8993;51.822;-2.268;2023-05-18T17:06:10;6.51;;;3.37;;
17741;SDS011;8993;51.822;-2.268;2023-05-18T17:11:15;6.37;;;3.08;;
17741;SDS011;8993;51.822;-2.268;2023-05-18T17:16:20;5.52;;;3.29;;
17741;SDS011;8993;51.822;-2.268;2023-05-18T17:21:24;5.97;;;3.46;;
17741;SDS011;8993;51.822;-2.268;2023-05-18T17:26:29;6.29;;;3.19;;
17741;SDS011;8993;51.822;-2.268;2023-05-18T17:31:33;5.79;;;3.17;;
17741;SDS011;8993;51.822;-2.268;2023-05-18T17:36:38;7.47;;;3.52;;
17741;SDS011;8993;51.822;-2.268;2023-05-18T17:41:42;7.26;;;3.62;;
17741;SDS011;8993;51.822;-2.268;2023-05-18T17:46:53;8.12;;;3.65;;
17741;SDS011;8993;51.822;-2.268;2023-05-18T17:51:48;7.70;;;4.25;;
17741;SDS011;8993;51.822;-2.268;2023-05-18T17:56:52;7.54;;;3.96;;
17741;SDS011;8993;51.822;-2.268;2023-05-18T18:01:58;7.94;;;4.51;;
17741;SDS011;8993;51.822;-2.268;2023-05-18T18:07:08;8.63;;;4.91;;
17741;SDS011;8993;51.822;-2.268;2023-05-18T18:12:03;10.40;;;5.07;;
17741;SDS011;8993;51.822;-2.268;2023-05-18T18:17:09;8.78;;;5.08;;
17741;SDS011;8993;51.822;-2.268;2023-05-18T18:22:14;10.83;;;4.89;;
17741;SDS011;8993;51.822;-2.268;2023-05-18T18:27:18;9.48;;;4.84;;
17741;SDS011;8993;51.822;-2.268;2023-05-18T18:32:24;8.49;;;4.41;;
17741;SDS011;8993;51.822;-2.268;2023-05-18T18:37:28;8.39;;;4.42;;
17741;SDS011;8993;51.822;-2.268;2023-05-18T18:42:34;9.65;;;4.66;;
17741;SDS011;8993;51.822;-2.268;2023-05-18T18:47:39;9.22;;;4.57;;
17741;SDS011;8993;51.822;-2.268;2023-05-18T18:52:44;8.41;;;4.31;;
17741;SDS011;8993;51.822;-2.268;2023-05-18T18:57:48;8.25;;;4.56;;
17741;SDS011;8993;51.822;-2.268;2023-05-18T19:02:53;8.58;;;4.67;;
17741;SDS011;8993;51.822;-2.268;2023-05-18T19:07:57;8.87;;;4.84;;
17741;SDS011;8993;51.822;-2.268;2023-05-18T19:13:02;8.86;;;4.42;;
17741;SDS011;8993;51.822;-2.268;2023-05-18T19:18:07;9.16;;;4.74;;
17741;SDS011;8993;51.822;-2.268;2023-05-18T19:23:12;10.91;;;5.13;;
17741;SDS011;8993;51.822;-2.268;2023-05-18T19:28:16;9.76;;;4.77;;
17741;SDS011;8993;51.822;-2.268;2023-05-18T19:33:21;10.22;;;4.52;;
17741;SDS011;8993;51.822;-2.268;2023-05-18T19:38:26;9.16;;;4.86;;
17741;SDS011;8993;51.822;-2.268;2023-05-18T19:43:30;9.01;;;4.59;;
17741;SDS011;8993;51.822;-2.268;2023-05-18T19:48:35;9.20;;;4.84;;
17741;SDS011;8993;51.822;-2.268;2023-05-18T19:53:39;10.92;;;4.75;;
17741;SDS011;8993;51.822;-2.268;2023-05-18T19:58:44;7.60;;;4.32;;
17741;SDS011;8993;51.822;-2.268;2023-05-18T20:03:49;9.39;;;4.40;;
17741;SDS011;8993;51.822;-2.268;2023-05-18T20:08:53;8.52;;;4.28;;
17741;SDS011;8993;51.822;-2.268;2023-05-18T20:13:58;9.92;;;4.41;;
17741;SDS011;8993;51.822;-2.268;2023-05-18T20:19:03;8.07;;;4.24;;
17741;SDS011;8993;51.822;-2.268;2023-05-18T20:24:09;10.15;;;4.33;;
17741;SDS011;8993;51.822;-2.268;2023-05-18T20:29:13;9.27;;;4.37;;
17741;SDS011;8993;51.822;-2.268;2023-05-18T20:34:18;9.40;;;4.50;;
17741;SDS011;8993;51.822;-2.268;2023-05-18T20:39:22;8.22;;;4.41;;
17741;SDS011;8993;51.822;-2.268;2023-05-18T20:44:27;12.80;;;4.77;;
17741;SDS011;8993;51.822;-2.268;2023-05-18T20:49:32;11.10;;;4.85;;
17741;SDS011;8993;51.822;-2.268;2023-05-18T20:54:36;11.84;;;4.81;;
17741;SDS011;8993;51.822;-2.268;2023-05-18T20:59:41;13.79;;;5.53;;
17741;SDS011;8993;51.822;-2.268;2023-05-18T21:04:45;12.59;;;4.97;;
17741;SDS011;8993;51.822;-2.268;2023-05-18T21:09:49;14.97;;;4.92;;
17741;SDS011;8993;51.822;-2.268;2023-05-18T21:14:54;13.77;;;4.77;;
17741;SDS011;8993;51.822;-2.268;2023-05-18T21:19:59;12.53;;;4.17;;
17741;SDS011;8993;51.822;-2.268;2023-05-18T21:25:04;15.16;;;5.10;;
17741;SDS011;8993;51.822;-2.268;2023-05-18T21:30:08;12.26;;;4.89;;
17741;SDS011;8993;51.822;-2.268;2023-05-18T21:35:12;12.37;;;5.26;;
17741;SDS011;8993;51.822;-2.268;2023-05-18T21:40:17;12.91;;;4.88;;
17741;SDS011;8993;51.822;-2.268;2023-05-18T21:45:21;12.39;;;5.13;;
17741;SDS011;8993;51.822;-2.268;2023-05-18T21:50:25;10.59;;;4.87;;
17741;SDS011;8993;51.822;-2.268;2023-05-18T21:55:30;11.39;;;5.30;;
17741;SDS011;8993;51.822;-2.268;2023-05-18T22:00:34;12.24;;;5.23;;
17741;SDS011;8993;51.822;-2.268;2023-05-18T22:05:39;9.98;;;5.03;;
17741;SDS011;8993;51.822;-2.268;2023-05-18T22:10:43;11.56;;;4.97;;
17741;SDS011;8993;51.822;-2.268;2023-05-18T22:15:48;8.60;;;4.40;;
17741;SDS011;8993;51.822;-2.268;2023-05-18T22:20:52;8.57;;;3.93;;
17741;SDS011;8993;51.822;-2.268;2023-05-18T22:25:57;10.20;;;4.26;;
17741;SDS011;8993;51.822;-2.268;2023-05-18T22:31:02;8.68;;;3.87;;
17741;SDS011;8993;51.822;-2.268;2023-05-18T22:36:06;8.12;;;3.92;;
17741;SDS011;8993;51.822;-2.268;2023-05-18T22:41:11;14.05;;;5.06;;
17741;SDS011;8993;51.822;-2.268;2023-05-18T22:46:15;10.21;;;4.55;;
17741;SDS011;8993;51.822;-2.268;2023-05-18T22:51:21;11.07;;;4.65;;
17741;SDS011;8993;51.822;-2.268;2023-05-18T22:56:25;11.51;;;4.95;;
17741;SDS011;8993;51.822;-2.268;2023-05-18T23:01:30;9.57;;;4.24;;
17741;SDS011;8993;51.822;-2.268;2023-05-18T23:06:35;11.67;;;5.45;;
17741;SDS011;8993;51.822;-2.268;2023-05-18T23:11:40;13.02;;;5.76;;
17741;SDS011;8993;51.822;-2.268;2023-05-18T23:16:44;11.17;;;4.83;;
17741;SDS011;8993;51.822;-2.268;2023-05-18T23:21:49;8.99;;;4.27;;
17741;SDS011;8993;51.822;-2.268;2023-05-18T23:26:55;13.41;;;5.76;;
17741;SDS011;8993;51.822;-2.268;2023-05-18T23:31:59;11.81;;;5.41;;
17741;SDS011;8993;51.822;-2.268;2023-05-18T23:37:04;13.38;;;5.65;;
17741;SDS011;8993;51.822;-2.268;2023-05-18T23:42:08;12.59;;;5.11;;
17741;SDS011;8993;51.822;-2.268;2023-05-18T23:47:15;9.81;;;4.38;;
17741;SDS011;8993;51.822;-2.268;2023-05-18T23:52:21;12.25;;;5.07;;
17741;SDS011;8993;51.822;-2.268;2023-05-18T23:57:24;7.33;;;4.18;;
